Time;durP1;ratioP1;P1;durP2;ratioP2;P2;SDS_P1;SDS_P2;PMS_P1;PMS_P2;Temp;Humidity;BMP_temperature;BMP_pressure;BME280_temperature;BME280_humidity;BME280_pressure;Samples;Min_cycle;Max_cycle;Signal;HPM_P1;HPM_P2
2023/05/25 00:02:18;;;;;;;11.13;5.32;;;;;;;;;;5072770;28;20258;-50
2023/05/25 00:04:47;;;;;;;9.13;5.50;;;11.50;99.90;;;;;;5073186;28;20253;-51
2023/05/25 00:07:13;;;;;;;11.05;4.63;;;11.50;99.90;;;;;;5072970;28;20214;-51
2023/05/25 00:09:40;;;;;;;7.78;5.03;;;11.60;99.90;;;;;;5072576;28;20227;-50
2023/05/25 00:12:06;;;;;;;10.73;5.50;;;11.50;99.90;;;;;;5072914;28;20165;-49
2023/05/25 00:14:32;;;;;;;11.40;5.20;;;11.50;99.90;;;;;;5072638;28;20170;-52
2023/05/25 00:17:02;;;;;;;12.07;5.65;;;;;;;;;;5072548;28;20193;-52
2023/05/25 00:19:31;;;;;;;9.77;4.90;;;;;;;;;;5072788;28;20201;-51
2023/05/25 00:21:57;;;;;;;13.48;5.07;;;11.30;99.90;;;;;;5072518;28;20207;-51
2023/05/25 00:24:22;;;;;;;8.25;5.10;;;11.30;99.90;;;;;;5072521;28;20168;-51
2023/05/25 00:26:48;;;;;;;9.38;5.32;;;11.40;99.90;;;;;;5072342;28;20182;-52
2023/05/25 00:29:13;;;;;;;10.82;4.85;;;11.40;99.90;;;;;;5072846;28;20253;-52
2023/05/25 00:31:40;;;;;;;10.38;5.78;;;;;;;;;;5072416;28;20178;-51
2023/05/25 00:34:05;;;;;;;8.07;5.10;;;11.40;99.90;;;;;;5072362;28;20178;-52
2023/05/25 00:36:31;;;;;;;10.82;5.15;;;;;;;;;;5072340;28;20180;-51
2023/05/25 00:38:57;;;;;;;9.73;5.38;;;11.50;99.90;;;;;;5072153;28;20181;-52
2023/05/25 00:41:23;;;;;;;10.30;5.68;;;;;;;;;;5072198;28;20162;-52
2023/05/25 00:43:49;;;;;;;9.18;5.53;;;;;;;;;;5072017;28;20178;-51
2023/05/25 00:46:15;;;;;;;9.73;5.22;;;11.40;99.90;;;;;;5072380;28;20178;-51
2023/05/25 00:48:41;;;;;;;8.85;5.10;;;11.40;99.90;;;;;;5072256;28;20197;-52
2023/05/25 00:51:09;;;;;;;15.85;6.30;;;11.40;99.90;;;;;;5072226;28;20231;-51
2023/05/25 00:53:36;;;;;;;13.60;6.15;;;;;;;;;;5071945;28;20254;-52
2023/05/25 00:56:08;;;;;;;17.17;6.07;;;11.40;99.90;;;;;;5072181;28;20202;-51
2023/05/25 00:58:36;;;;;;;8.48;5.45;;;;;;;;;;5072034;28;20218;-51
2023/05/25 01:01:03;;;;;;;15.63;6.60;;;11.10;99.90;;;;;;5070700;28;20710;-51
2023/05/25 01:03:34;;;;;;;14.80;6.13;;;11.20;99.90;;;;;;5071897;28;20174;-51
2023/05/25 01:06:01;;;;;;;6.85;5.63;;;11.20;99.90;;;;;;5071632;28;20206;-52
2023/05/25 01:08:32;;;;;;;11.23;5.35;;;11.20;99.90;;;;;;5071941;28;20230;-51
2023/05/25 01:11:00;;;;;;;12.77;5.78;;;;;;;;;;5070959;28;20286;-51
2023/05/25 01:13:27;;;;;;;11.57;6.53;;;;;;;;;;5071597;28;20166;-51
2023/05/25 01:15:53;;;;;;;10.80;6.38;;;;;;;;;;5071519;28;20170;-50
2023/05/25 01:18:18;;;;;;;15.60;6.72;;;11.20;99.90;;;;;;5070329;28;20274;-50
2023/05/25 01:21:20;;;;;;;10.43;6.50;;;11.20;99.90;;;;;;5071878;28;20612;-50
2023/05/25 01:23:54;;;;;;;25.23;7.03;;;11.20;99.90;;;;;;5070436;28;20642;-51
2023/05/25 01:26:25;;;;;;;12.30;5.85;;;11.10;99.90;;;;;;5071400;28;20197;-51
2023/05/25 01:28:52;;;;;;;8.13;5.32;;;11.10;99.90;;;;;;5071198;28;20173;-51
2023/05/25 01:31:21;;;;;;;10.65;5.30;;;11.10;99.90;;;;;;5069738;28;20174;-51
2023/05/25 01:33:50;;;;;;;7.75;4.93;;;11.00;99.90;;;;;;5071057;28;20181;-51
2023/05/25 01:36:16;;;;;;;11.95;5.60;;;;;;;;;;5071464;28;20167;-51
2023/05/25 01:38:41;;;;;;;10.40;4.93;;;11.00;99.90;;;;;;5071041;28;20213;-50
2023/05/25 01:41:07;;;;;;;8.25;5.25;;;11.00;99.90;;;;;;5070901;28;20172;-50
2023/05/25 01:43:32;;;;;;;10.90;5.80;;;11.00;99.90;;;;;;5070888;28;20176;-51
2023/05/25 01:46:10;;;;;;;12.65;6.75;;;11.00;99.90;;;;;;5070927;28;20174;-51
2023/05/25 01:48:52;;;;;;;9.52;6.40;;;;;;;;;;5070761;28;20173;-50
2023/05/25 01:51:38;;;;;;;15.35;7.32;;;11.00;99.90;;;;;;5070733;28;20655;-51
2023/05/25 01:54:12;;;;;;;9.20;5.85;;;10.80;99.90;;;;;;5070699;28;20353;-51
2023/05/25 01:56:41;;;;;;;9.00;5.20;;;10.30;99.90;;;;;;5070534;28;20157;-51
2023/05/25 01:59:07;;;;;;;11.52;5.20;;;10.30;99.90;;;;;;5070764;28;20224;-51
2023/05/25 02:01:35;;;;;;;16.67;5.90;;;;;;;;;;5070518;28;20185;-51
2023/05/25 02:04:02;;;;;;;11.82;6.07;;;10.30;99.90;;;;;;5070440;28;20176;-52
2023/05/25 02:06:27;;;;;;;12.27;5.60;;;10.40;99.90;;;;;;5069133;28;20217;-51
2023/05/25 02:08:53;;;;;;;12.93;5.97;;;10.40;99.90;;;;;;5072102;28;20527;-50
2023/05/25 02:11:19;;;;;;;10.98;5.80;;;10.50;99.90;;;;;;5072147;28;20512;-50
2023/05/25 02:13:44;;;;;;;16.35;6.97;;;10.30;99.90;;;;;;5072715;28;20180;-51
2023/05/25 02:16:10;;;;;;;9.02;5.90;;;10.40;99.90;;;;;;5072068;28;20586;-51
2023/05/25 02:18:35;;;;;;;13.90;6.80;;;10.40;99.90;;;;;;5071932;28;20631;-51
2023/05/25 02:21:01;;;;;;;12.23;6.93;;;10.40;99.90;;;;;;5071915;28;20651;-51
2023/05/25 02:23:27;;;;;;;16.05;6.63;;;10.40;99.90;;;;;;5071153;28;20170;-50
2023/05/25 02:25:52;;;;;;;11.43;6.72;;;10.40;99.90;;;;;;5071928;28;20158;-50
2023/05/25 02:28:18;;;;;;;14.10;6.45;;;10.40;99.90;;;;;;5071919;28;20519;-51
2023/05/25 02:30:44;;;;;;;14.65;6.90;;;10.40;99.90;;;;;;5072527;28;20178;-49
2023/05/25 02:33:10;;;;;;;17.35;7.65;;;10.40;99.90;;;;;;5071794;28;20176;-50
2023/05/25 02:35:36;;;;;;;16.90;7.05;;;10.40;99.90;;;;;;5071969;28;20192;-51
2023/05/25 02:38:02;;;;;;;15.52;7.45;;;10.40;99.90;;;;;;5071911;28;20210;-51
2023/05/25 02:40:28;;;;;;;13.05;6.38;;;10.30;99.90;;;;;;5071710;28;20177;-50
2023/05/25 02:42:53;;;;;;;13.60;6.88;;;10.20;99.90;;;;;;5071627;28;20250;-51
2023/05/25 02:45:19;;;;;;;14.05;7.22;;;10.20;99.90;;;;;;5071642;28;20603;-50
2023/05/25 02:47:44;;;;;;;14.20;8.13;;;10.20;99.90;;;;;;5072246;28;20509;-50
2023/05/25 02:50:10;;;;;;;8.65;5.50;;;10.20;99.90;;;;;;5070296;28;20196;-51
2023/05/25 02:52:35;;;;;;;11.85;6.30;;;10.20;99.90;;;;;;5071022;28;20228;-51
2023/05/25 02:55:02;;;;;;;10.63;6.40;;;10.10;99.90;;;;;;5071440;28;20695;-49
2023/05/25 02:57:28;;;;;;;12.63;6.20;;;10.10;99.90;;;;;;5071617;28;20277;-51
2023/05/25 02:59:53;;;;;;;10.75;6.25;;;9.90;99.90;;;;;;5071677;28;20162;-50
2023/05/25 03:02:19;;;;;;;10.60;5.72;;;10.00;99.90;;;;;;5071666;28;20172;-51
2023/05/25 03:04:45;;;;;;;13.00;5.88;;;10.10;99.90;;;;;;5072063;28;20170;-50
2023/05/25 03:07:11;;;;;;;12.25;6.55;;;10.00;99.90;;;;;;5071243;28;20209;-51
2023/05/25 03:09:37;;;;;;;9.73;6.28;;;9.80;99.90;;;;;;5071394;28;20190;-51
2023/05/25 03:12:02;;;;;;;10.45;5.95;;;10.00;99.90;;;;;;5071362;28;20189;-50
2023/05/25 03:14:28;;;;;;;12.60;6.00;;;10.00;99.90;;;;;;5071372;28;20177;-51
2023/05/25 03:16:54;;;;;;;16.85;6.20;;;10.10;99.90;;;;;;5071311;28;20189;-51
2023/05/25 03:19:19;;;;;;;11.88;6.13;;;10.00;99.90;;;;;;5071368;28;20299;-51
2023/05/25 03:21:46;;;;;;;13.45;6.40;;;10.00;99.90;;;;;;5071648;28;20210;-51
2023/05/25 03:24:11;;;;;;;14.13;6.20;;;9.80;99.90;;;;;;5071634;28;20248;-50
2023/05/25 03:26:38;;;;;;;16.48;7.60;;;9.90;99.90;;;;;;5071263;28;20170;-51
2023/05/25 03:29:05;;;;;;;14.95;6.40;;;;;;;;;;5071143;28;20177;-51
2023/05/25 03:31:31;;;;;;;12.90;7.30;;;9.80;99.90;;;;;;5071485;28;20525;-50
2023/05/25 03:33:57;;;;;;;16.45;7.20;;;10.00;99.90;;;;;;5071768;28;20245;-51
2023/05/25 03:36:26;;;;;;;16.08;7.63;;;10.50;99.90;;;;;;5075132;28;20570;-50
2023/05/25 03:38:52;;;;;;;14.25;7.55;;;10.20;99.90;;;;;;5075258;28;20205;-51
2023/05/25 03:41:17;;;;;;;17.52;8.18;;;10.10;99.90;;;;;;5075098;28;20168;-50
2023/05/25 03:43:43;;;;;;;20.23;8.98;;;;;;;;;;5075431;28;20166;-51
2023/05/25 03:46:10;;;;;;;18.88;8.48;;;10.10;99.90;;;;;;5074953;28;20170;-50
2023/05/25 03:48:36;;;;;;;19.80;8.63;;;10.10;99.90;;;;;;5075061;28;20228;-49
2023/05/25 03:51:02;;;;;;;20.23;7.72;;;10.20;99.90;;;;;;5074864;28;20573;-50
2023/05/25 03:53:27;;;;;;;19.05;7.60;;;10.10;99.90;;;;;;5075075;28;20170;-50
2023/05/25 03:55:53;;;;;;;19.30;8.63;;;10.20;99.90;;;;;;5074735;28;20659;-50
2023/05/25 03:58:19;;;;;;;15.93;7.65;;;10.20;99.90;;;;;;5074565;28;20212;-49
2023/05/25 04:00:47;;;;;;;17.08;7.68;;;;;;;;;;5075105;28;20162;-50
2023/05/25 04:03:13;;;;;;;14.05;7.65;;;10.20;99.90;;;;;;5075298;28;20174;-49
2023/05/25 04:05:39;;;;;;;17.33;7.30;;;10.20;99.90;;;;;;5074458;28;20246;-49
2023/05/25 04:08:07;;;;;;;14.75;8.05;;;;;;;;;;5074497;28;20178;-51
2023/05/25 04:10:32;;;;;;;18.25;7.40;;;10.30;99.90;;;;;;5074484;28;20204;-49
2023/05/25 04:12:58;;;;;;;19.00;7.63;;;10.30;99.90;;;;;;5074319;28;20170;-50
2023/05/25 04:15:24;;;;;;;21.27;7.60;;;;;;;;;;5074616;28;20170;-49
2023/05/25 04:17:50;;;;;;;16.95;7.65;;;10.20;99.90;;;;;;5074334;28;20259;-49
2023/05/25 04:20:16;;;;;;;25.83;8.07;;;;;;;;;;5074302;28;20571;-49
2023/05/25 04:22:43;;;;;;;16.80;7.25;;;10.40;99.90;;;;;;5074721;28;20215;-49
2023/05/25 04:25:09;;;;;;;18.27;7.88;;;10.40;99.90;;;;;;5074460;28;20176;-49
2023/05/25 04:27:35;;;;;;;19.48;7.60;;;10.50;99.90;;;;;;5074060;28;20252;-49
2023/05/25 04:30:02;;;;;;;12.07;7.32;;;10.70;99.90;;;;;;5074135;28;20162;-49
2023/05/25 04:32:28;;;;;;;12.38;7.15;;;10.80;99.90;;;;;;5074112;28;20165;-49
2023/05/25 04:34:55;;;;;;;14.05;8.45;;;10.90;99.90;;;;;;5074077;28;20572;-50
2023/05/25 04:37:25;;;;;;;14.95;6.60;;;10.90;99.90;;;;;;5073076;28;20201;-50
2023/05/25 04:39:52;;;;;;;15.30;7.05;;;11.00;99.90;;;;;;5073928;28;20204;-49
2023/05/25 04:42:22;;;;;;;15.82;6.30;;;;;;;;;;5073746;28;20181;-49
2023/05/25 04:44:54;;;;;;;14.88;6.55;;;11.10;99.90;;;;;;5073858;28;20170;-51
2023/05/25 04:47:21;;;;;;;13.10;7.72;;;11.10;99.90;;;;;;5071821;28;20169;-50
2023/05/25 04:49:46;;;;;;;16.77;7.03;;;11.30;99.90;;;;;;5072312;28;20170;-50
2023/05/25 04:52:12;;;;;;;12.57;7.28;;;11.30;99.90;;;;;;5072919;28;20172;-50
2023/05/25 04:54:40;;;;;;;14.50;6.68;;;;;;;;;;5072474;28;20259;-51
2023/05/25 04:57:06;;;;;;;16.60;7.90;;;11.40;99.90;;;;;;5073823;28;20690;-50
2023/05/25 04:59:32;;;;;;;13.20;6.38;;;11.60;99.90;;;;;;5055711;28;20177;-52
2023/05/25 05:01:59;;;;;;;17.08;7.03;;;11.70;99.90;;;;;;5073739;28;20244;-51
2023/05/25 05:04:24;;;;;;;10.63;6.38;;;11.90;99.90;;;;;;5072527;28;20710;-52
2023/05/25 05:06:50;;;;;;;15.80;7.00;;;11.90;99.90;;;;;;5073362;28;20297;-50
2023/05/25 05:09:17;;;;;;;15.80;7.10;;;11.80;99.90;;;;;;5073758;28;20188;-49
2023/05/25 05:11:42;;;;;;;14.48;7.38;;;12.00;99.90;;;;;;5073919;28;20177;-51
2023/05/25 05:14:08;;;;;;;17.98;7.28;;;12.10;99.90;;;;;;5073418;28;20170;-51
2023/05/25 05:16:36;;;;;;;20.88;7.75;;;;;;;;;;5073540;28;20158;-51
2023/05/25 05:19:02;;;;;;;13.52;7.53;;;12.20;99.90;;;;;;5073101;28;20641;-50
2023/05/25 05:21:27;;;;;;;13.45;7.75;;;12.30;99.90;;;;;;5073476;28;20204;-51
2023/05/25 05:23:53;;;;;;;17.88;7.78;;;12.30;99.90;;;;;;5073163;28;20162;-51
2023/05/25 05:26:20;;;;;;;17.90;8.45;;;12.40;99.90;;;;;;5073112;28;20220;-51
2023/05/25 05:28:45;;;;;;;21.75;8.43;;;;;;;;;;5073006;28;20692;-50
2023/05/25 05:31:11;;;;;;;20.30;8.75;;;12.50;99.90;;;;;;5073402;28;20178;-50
2023/05/25 05:33:38;;;;;;;17.40;8.27;;;;;;;;;;5073156;28;20190;-50
2023/05/25 05:36:04;;;;;;;13.05;7.82;;;12.50;99.90;;;;;;5073216;28;20561;-50
2023/05/25 05:38:30;;;;;;;16.23;8.15;;;12.70;99.90;;;;;;5072977;28;20220;-51
2023/05/25 05:40:55;;;;;;;17.33;8.70;;;12.70;99.90;;;;;;5071585;28;20170;-50
2023/05/25 05:43:21;;;;;;;15.82;7.95;;;12.70;99.90;;;;;;5072761;28;20197;-50
2023/05/25 05:45:47;;;;;;;13.63;8.30;;;12.80;99.90;;;;;;5072906;28;20170;-51
2023/05/25 05:48:12;;;;;;;21.02;8.80;;;12.90;99.90;;;;;;5073005;28;20654;-51
2023/05/25 05:50:38;;;;;;;23.13;9.82;;;13.10;99.90;;;;;;5072833;28;20588;-51
2023/05/25 05:53:05;;;;;;;20.50;9.48;;;13.20;99.90;;;;;;5072728;28;20585;-51
2023/05/25 05:55:31;;;;;;;20.17;9.27;;;13.10;99.90;;;;;;5072552;28;20220;-50
2023/05/25 05:57:57;;;;;;;22.60;9.07;;;13.30;99.90;;;;;;5069862;28;20197;-52
2023/05/25 06:00:23;;;;;;;18.35;9.15;;;;;;;;;;5070413;28;20163;-50
2023/05/25 06:02:49;;;;;;;16.77;9.23;;;13.40;99.90;;;;;;5070572;28;20166;-52
2023/05/25 06:05:15;;;;;;;17.38;9.48;;;;;;;;;;5070449;28;20165;-48
2023/05/25 06:07:41;;;;;;;23.63;10.32;;;;;;;;;;5070584;28;20754;-52
2023/05/25 06:10:07;;;;;;;24.60;10.32;;;13.50;99.90;;;;;;5070656;28;20166;-52
2023/05/25 06:12:33;;;;;;;19.52;10.32;;;13.50;99.90;;;;;;5070168;28;20178;-52
2023/05/25 06:14:59;;;;;;;16.73;9.57;;;;;;;;;;5070188;28;20177;-51
2023/05/25 06:17:25;;;;;;;14.95;9.90;;;;;;;;;;5070495;28;20216;-52
2023/05/25 06:19:51;;;;;;;23.20;10.65;;;13.50;99.90;;;;;;5070174;28;20224;-49
2023/05/25 06:22:16;;;;;;;18.70;10.20;;;13.70;99.90;;;;;;5070128;28;20170;-52
2023/05/25 06:24:42;;;;;;;18.92;10.10;;;13.80;99.90;;;;;;5070742;28;20241;-48
2023/05/25 06:27:08;;;;;;;14.13;10.02;;;13.90;99.90;;;;;;5070093;28;20581;-51
2023/05/25 06:29:33;;;;;;;18.08;10.20;;;13.80;99.90;;;;;;5069940;28;20582;-50
2023/05/25 06:31:59;;;;;;;20.83;10.20;;;13.80;99.90;;;;;;5069343;28;20170;-51
2023/05/25 06:34:25;;;;;;;19.58;10.65;;;;;;;;;;5070041;28;20212;-51
2023/05/25 06:36:51;;;;;;;22.83;9.30;;;;;;;;;;5069840;28;20253;-51
2023/05/25 06:39:17;;;;;;;21.88;10.73;;;;;;;;;;5070142;28;20177;-50
2023/05/25 06:41:43;;;;;;;21.33;9.10;;;14.10;99.90;;;;;;5070321;28;20502;-50
2023/05/25 06:44:09;;;;;;;18.17;10.82;;;14.30;99.90;;;;;;5069793;28;20227;-49
2023/05/25 06:46:35;;;;;;;23.08;9.90;;;;;;;;;;5069865;28;20186;-50
2023/05/25 06:49:01;;;;;;;17.23;10.25;;;14.00;99.90;;;;;;5069945;28;20579;-50
2023/05/25 06:51:27;;;;;;;23.52;10.45;;;;;;;;;;5069633;28;20178;-50
2023/05/25 06:53:55;;;;;;;20.58;10.85;;;14.20;99.90;;;;;;5070067;28;20162;-50
2023/05/25 06:56:21;;;;;;;19.20;11.20;;;14.40;99.90;;;;;;5069653;28;20170;-50
2023/05/25 06:58:47;;;;;;;17.27;10.55;;;14.40;99.90;;;;;;5069912;28;20615;-50
2023/05/25 07:01:13;;;;;;;15.50;10.73;;;14.60;99.90;;;;;;5069956;28;20192;-50
2023/05/25 07:03:39;;;;;;;22.15;10.55;;;15.00;99.90;;;;;;5069301;28;20197;-50
2023/05/25 07:06:05;;;;;;;18.08;9.75;;;15.10;99.90;;;;;;5069479;28;20214;-50
2023/05/25 07:08:31;;;;;;;21.58;9.93;;;15.10;99.90;;;;;;5069070;28;20174;-50
2023/05/25 07:10:57;;;;;;;24.10;10.80;;;;;;;;;;5069481;28;20249;-50
2023/05/25 07:13:22;;;;;;;18.63;11.05;;;15.10;99.90;;;;;;5069448;28;20511;-50
2023/05/25 07:15:48;;;;;;;18.38;10.80;;;15.10;99.90;;;;;;5069693;28;20170;-50
2023/05/25 07:18:15;;;;;;;19.38;10.25;;;15.30;99.90;;;;;;5069682;28;20224;-49
2023/05/25 07:20:42;;;;;;;23.40;10.88;;;;;;;;;;5069996;28;20231;-50
2023/05/25 07:23:08;;;;;;;20.10;10.70;;;;;;;;;;5069325;28;20650;-50
2023/05/25 07:25:35;;;;;;;19.95;10.88;;;15.80;99.90;;;;;;5068249;28;20162;-50
2023/05/25 07:28:01;;;;;;;21.42;10.90;;;;;;;;;;5069573;28;20230;-50
2023/05/25 07:30:26;;;;;;;23.92;11.15;;;16.00;99.90;;;;;;5069417;28;20174;-50
2023/05/25 07:32:52;;;;;;;22.50;10.57;;;16.20;99.90;;;;;;5069312;28;20172;-50
2023/05/25 07:35:18;;;;;;;20.83;10.00;;;;;;;;;;5069481;28;20308;-50
2023/05/25 07:37:44;;;;;;;21.25;10.63;;;;;;;;;;5069553;28;20206;-50
2023/05/25 07:40:10;;;;;;;21.83;10.95;;;15.90;99.90;;;;;;5069787;28;20522;-50
2023/05/25 07:42:36;;;;;;;19.15;10.27;;;;;;;;;;5069336;28;20821;-50
2023/05/25 07:45:01;;;;;;;16.45;10.32;;;15.90;99.90;;;;;;5069505;28;20178;-50
2023/05/25 07:47:27;;;;;;;27.73;10.02;;;15.80;99.90;;;;;;5069413;28;20193;-49
2023/05/25 07:49:53;;;;;;;15.05;10.07;;;16.00;99.90;;;;;;5069356;28;20635;-50
2023/05/25 07:52:19;;;;;;;17.40;10.65;;;16.40;99.90;;;;;;5069155;28;20662;-49
2023/05/25 07:54:45;;;;;;;20.23;11.30;;;;;;;;;;5068222;28;20174;-50
2023/05/25 07:57:11;;;;;;;25.35;11.18;;;;;;;;;;5069411;28;20197;-50
2023/05/25 07:59:37;;;;;;;17.55;10.27;;;;;;;;;;5069243;28;20181;-50
2023/05/25 08:02:03;;;;;;;16.27;9.73;;;16.60;99.90;;;;;;5069311;28;20208;-53
2023/05/25 08:04:30;;;;;;;22.10;11.07;;;16.70;99.90;;;;;;5069018;28;20174;-50
2023/05/25 08:06:56;;;;;;;20.58;10.55;;;;;;;;;;5068682;28;20217;-50
2023/05/25 08:09:22;;;;;;;16.33;10.77;;;16.60;99.90;;;;;;5069076;28;20265;-49
2023/05/25 08:11:48;;;;;;;21.05;10.90;;;;;;;;;;5068892;28;20588;-49
2023/05/25 08:14:14;;;;;;;18.27;10.98;;;;;;;;;;5069273;28;20252;-50
2023/05/25 08:16:40;;;;;;;19.63;10.60;;;;;;;;;;5067574;28;20162;-49
2023/05/25 08:19:06;;;;;;;23.00;10.40;;;;;;;;;;5068715;28;20220;-49
2023/05/25 08:21:33;;;;;;;17.00;10.45;;;16.90;99.90;;;;;;5070227;28;20166;-49
2023/05/25 08:24:02;;;;;;;15.77;10.55;;;;;;;;;;5072521;28;20182;-50
2023/05/25 08:26:29;;;;;;;15.32;10.50;;;17.30;99.90;;;;;;5072597;28;20257;-49
2023/05/25 08:28:55;;;;;;;19.98;11.10;;;;;;;;;;5072635;28;20227;-49
2023/05/25 08:31:21;;;;;;;17.67;10.38;;;16.80;99.90;;;;;;5072310;28;20181;-50
2023/05/25 08:33:47;;;;;;;22.38;10.40;;;17.10;99.90;;;;;;5072289;28;20261;-50
2023/05/25 08:36:12;;;;;;;16.83;9.75;;;17.50;99.90;;;;;;5072610;28;20170;-51
2023/05/25 08:38:38;;;;;;;18.17;10.30;;;17.50;99.90;;;;;;5072087;28;20208;-51
2023/05/25 08:41:05;;;;;;;20.67;10.52;;;17.50;99.90;;;;;;5071999;28;20254;-51
2023/05/25 08:43:33;;;;;;;19.90;9.00;;;17.70;99.90;;;;;;5072096;28;20340;-50
2023/05/25 08:46:03;;;;;;;16.92;9.77;;;;;;;;;;5072274;28;20170;-50
2023/05/25 08:48:32;;;;;;;13.60;8.75;;;17.30;99.90;;;;;;5071822;28;20681;-50
2023/05/25 08:51:01;;;;;;;16.40;8.75;;;17.70;99.90;;;;;;5071869;28;20169;-51
2023/05/25 08:53:30;;;;;;;17.00;8.38;;;17.70;99.90;;;;;;5072012;28;20189;-50
2023/05/25 08:55:57;;;;;;;14.73;7.78;;;17.60;99.90;;;;;;5072117;28;20400;-50
2023/05/25 08:58:29;;;;;;;14.05;7.43;;;17.30;99.90;;;;;;5071829;28;20387;-50
2023/05/25 09:00:58;;;;;;;14.30;7.45;;;;;;;;;;5072152;28;20174;-50
2023/05/25 09:03:24;;;;;;;12.85;7.10;;;17.90;99.90;;;;;;5071842;28;20173;-49
2023/05/25 09:05:50;;;;;;;17.40;7.78;;;17.80;99.90;;;;;;5071447;28;20499;-50
2023/05/25 09:08:16;;;;;;;13.68;8.25;;;;;;;;;;5071603;28;20169;-50
2023/05/25 09:10:42;;;;;;;21.70;7.18;;;;;;;;;;5072312;28;20235;-50
2023/05/25 09:13:08;;;;;;;17.45;8.85;;;17.90;99.90;;;;;;5071687;28;20166;-50
2023/05/25 09:15:35;;;;;;;11.43;7.95;;;;;;;;;;5071524;28;20162;-50
2023/05/25 09:18:00;;;;;;;17.27;7.57;;;;;;;;;;5071597;28;20205;-50
2023/05/25 09:20:32;;;;;;;14.65;8.18;;;17.40;99.90;;;;;;5071431;28;20192;-50
2023/05/25 09:22:58;;;;;;;13.48;7.05;;;;;;;;;;5071308;28;20536;-49
2023/05/25 09:25:26;;;;;;;12.45;7.05;;;17.20;99.90;;;;;;5071555;28;20209;-49
2023/05/25 09:27:52;;;;;;;15.77;7.60;;;;;;;;;;5071594;28;20266;-51
2023/05/25 09:30:18;;;;;;;13.20;7.60;;;;;;;;;;5071460;28;20173;-49
2023/05/25 09:32:44;;;;;;;10.82;7.47;;;;;;;;;;5071032;28;20190;-50
2023/05/25 09:35:12;;;;;;;13.38;7.32;;;18.00;99.90;;;;;;5071455;28;20631;-50
2023/05/25 09:37:39;;;;;;;10.05;7.00;;;18.10;99.90;;;;;;5071006;28;20225;-50
2023/05/25 09:40:05;;;;;;;12.57;7.15;;;17.90;99.90;;;;;;5070935;28;20580;-50
2023/05/25 09:42:32;;;;;;;14.48;7.00;;;17.70;99.90;;;;;;5071141;28;20592;-49
2023/05/25 09:44:58;;;;;;;12.90;7.22;;;17.60;99.90;;;;;;5070853;28;20607;-50
2023/05/25 09:47:25;;;;;;;15.15;7.45;;;;;;;;;;5071115;28;20174;-48
2023/05/25 09:49:52;;;;;;;14.25;8.07;;;18.10;99.90;;;;;;5071040;28;20166;-48
2023/05/25 09:52:18;;;;;;;13.48;6.93;;;;;;;;;;5070882;28;20455;-48
2023/05/25 09:54:50;;;;;;;12.18;7.45;;;;;;;;;;5071111;28;20531;-48
2023/05/25 09:57:19;;;;;;;10.43;6.88;;;18.50;99.90;;;;;;5070437;28;20724;-48
2023/05/25 09:59:45;;;;;;;15.35;7.53;;;;;;;;;;5071336;28;20170;-49
2023/05/25 10:02:12;;;;;;;10.57;6.68;;;18.60;99.90;;;;;;5070840;28;20173;-49
2023/05/25 10:04:38;;;;;;;14.25;6.15;;;18.50;99.90;;;;;;5070508;28;20249;-49
2023/05/25 10:07:05;;;;;;;7.53;5.10;;;18.10;99.90;;;;;;5069037;28;20266;-49
2023/05/25 10:09:34;;;;;;;10.38;5.88;;;18.30;99.90;;;;;;5070705;28;20503;-49
2023/05/25 10:12:10;;;;;;;9.75;5.68;;;18.80;99.90;;;;;;5070683;28;20162;-56
2023/05/25 10:14:37;;;;;;;10.32;5.07;;;18.80;99.90;;;;;;5069127;28;20577;-49
2023/05/25 10:17:05;;;;;;;8.35;5.50;;;19.10;99.90;;;;;;5070303;28;20174;-49
2023/05/25 10:19:40;;;;;;;9.95;5.15;;;;;;;;;;5070464;28;20199;-49
2023/05/25 10:22:20;;;;;;;12.98;6.03;;;;;;;;;;5070148;28;20565;-50
2023/05/25 10:25:08;;;;;;;5.97;4.57;;;18.90;99.90;;;;;;5070356;28;20202;-49
2023/05/25 10:27:40;;;;;;;11.32;6.20;;;;;;;;;;5070026;28;20662;-49
2023/05/25 10:30:08;;;;;;;27.65;6.35;;;19.00;99.90;;;;;;5070013;28;20170;-50
2023/05/25 10:32:36;;;;;;;9.57;5.88;;;19.10;99.90;;;;;;5070040;28;20269;-49
2023/05/25 10:35:03;;;;;;;7.32;5.03;;;19.00;99.90;;;;;;5069966;28;20170;-49
2023/05/25 10:37:30;;;;;;;9.48;5.10;;;19.00;99.90;;;;;;5069982;28;20534;-49
2023/05/25 10:39:59;;;;;;;9.30;4.97;;;19.30;99.90;;;;;;5070181;28;20174;-49
2023/05/25 10:42:29;;;;;;;6.78;4.30;;;18.90;99.90;;;;;;5070251;28;20169;-50
2023/05/25 10:44:55;;;;;;;9.90;4.30;;;;;;;;;;5069190;28;20224;-50
2023/05/25 10:47:22;;;;;;;9.02;4.35;;;18.90;99.90;;;;;;5070025;28;20205;-49
2023/05/25 10:49:53;;;;;;;7.75;4.65;;;18.70;99.90;;;;;;5070099;28;20193;-49
2023/05/25 10:52:19;;;;;;;10.90;4.93;;;;;;;;;;5069805;28;20184;-49
2023/05/25 10:54:46;;;;;;;9.05;4.28;;;;;;;;;;5069745;28;20162;-49
2023/05/25 10:57:18;;;;;;;7.88;3.90;;;18.80;99.90;;;;;;5070345;28;20197;-49
2023/05/25 10:59:48;;;;;;;7.10;4.80;;;;;;;;;;5069952;28;20219;-50
2023/05/25 11:02:14;;;;;;;8.35;4.55;;;;;;;;;;5070278;28;20243;-49
2023/05/25 11:04:41;;;;;;;10.40;4.10;;;;;;;;;;5070323;28;20185;-49
2023/05/25 11:07:13;;;;;;;7.32;4.68;;;19.00;99.90;;;;;;5069250;28;20214;-49
2023/05/25 11:09:42;;;;;;;8.18;4.78;;;19.50;99.90;;;;;;5069779;28;20243;-49
2023/05/25 11:12:19;;;;;;;7.75;4.75;;;19.60;99.90;;;;;;5069438;28;20162;-49
2023/05/25 11:14:45;;;;;;;10.70;4.47;;;;;;;;;;5069647;28;20239;-49
2023/05/25 11:17:17;;;;;;;8.23;4.43;;;19.50;99.90;;;;;;5069991;28;20288;-49
2023/05/25 11:19:51;;;;;;;7.07;4.38;;;;;;;;;;5070128;28;20213;-49
2023/05/25 11:22:19;;;;;;;6.78;4.20;;;;;;;;;;5069549;28;20169;-49
2023/05/25 11:24:46;;;;;;;8.98;4.53;;;19.10;99.90;;;;;;5069632;28;20265;-49
2023/05/25 11:27:12;;;;;;;9.55;4.40;;;;;;;;;;5068477;28;20169;-49
2023/05/25 11:29:39;;;;;;;7.25;4.72;;;19.20;99.90;;;;;;5069651;28;20276;-49
2023/05/25 11:32:12;;;;;;;8.65;5.22;;;;;;;;;;5069435;28;20227;-49
2023/05/25 11:34:37;;;;;;;7.63;5.05;;;;;;;;;;5069694;28;20181;-49
2023/05/25 11:37:04;;;;;;;10.65;4.78;;;;;;;;;;5069260;28;20169;-49
2023/05/25 11:39:30;;;;;;;10.07;4.63;;;19.10;99.90;;;;;;5069036;28;20662;-49
2023/05/25 11:42:01;;;;;;;9.55;4.85;;;;;;;;;;5069094;28;20170;-49
2023/05/25 11:44:35;;;;;;;6.38;4.22;;;19.30;99.90;;;;;;5069252;28;20170;-49
2023/05/25 11:47:04;;;;;;;10.43;4.68;;;19.20;99.90;;;;;;5069342;28;20173;-49
2023/05/25 11:49:30;;;;;;;6.03;3.95;;;;;;;;;;5069469;28;20180;-49
2023/05/25 11:51:57;;;;;;;7.55;4.45;;;;;;;;;;5069127;28;20175;-49
2023/05/25 11:54:26;;;;;;;5.30;3.90;;;18.80;99.90;;;;;;5068103;28;20245;-49
2023/05/25 11:56:56;;;;;;;8.10;3.80;;;18.90;99.90;;;;;;5072534;28;20174;-49
2023/05/25 11:59:22;;;;;;;7.05;4.18;;;;;;;;;;5073203;28;20587;-49
2023/05/25 12:02:07;;;;;;;48.55;7.45;;;18.90;99.90;;;;;;5073181;28;20631;-49
2023/05/25 12:04:33;;;;;;;10.02;4.32;;;18.70;99.90;;;;;;5072569;28;20210;-49
2023/05/25 12:07:03;;;;;;;9.95;4.55;;;18.50;99.90;;;;;;5072644;28;20256;-49
2023/05/25 12:09:29;;;;;;;7.55;4.00;;;;;;;;;;5073199;28;20536;-49
2023/05/25 12:11:55;;;;;;;5.35;4.20;;;18.80;99.90;;;;;;5072771;28;20619;-49
2023/05/25 12:14:21;;;;;;;7.43;4.32;;;18.60;99.90;;;;;;5072694;28;20177;-49
2023/05/25 12:16:46;;;;;;;6.25;3.72;;;18.30;99.90;;;;;;5072742;28;20165;-49
2023/05/25 12:19:12;;;;;;;5.78;3.55;;;18.70;99.90;;;;;;5073027;28;20237;-50
2023/05/25 12:21:40;;;;;;;7.40;3.90;;;;;;;;;;5072817;28;20538;-50
2023/05/25 12:24:07;;;;;;;7.22;4.45;;;19.50;99.90;;;;;;5072591;28;20202;-50
2023/05/25 12:26:33;;;;;;;8.05;4.70;;;19.00;99.90;;;;;;5072504;28;20165;-49
2023/05/25 12:29:07;;;;;;;9.20;3.88;;;18.90;99.90;;;;;;5072322;28;20639;-49
2023/05/25 12:31:33;;;;;;;10.38;4.88;;;;;;;;;;5072337;28;20178;-49
2023/05/25 12:34:16;;;;;;;4.78;3.13;;;19.00;99.90;;;;;;5070807;28;20182;-50
2023/05/25 12:36:42;;;;;;;12.00;4.57;;;;;;;;;;5072729;28;20650;-50
2023/05/25 12:39:10;;;;;;;5.38;4.05;;;19.00;99.90;;;;;;5072137;28;20251;-49
2023/05/25 12:42:02;;;;;;;9.30;4.63;;;18.80;99.90;;;;;;5072106;28;20170;-49
2023/05/25 12:44:37;;;;;;;6.60;3.90;;;18.80;99.90;;;;;;5068174;28;20235;-49
2023/05/25 12:47:20;;;;;;;7.90;4.38;;;18.90;99.90;;;;;;5072550;28;20176;-49
2023/05/25 12:49:50;;;;;;;7.18;3.67;;;18.90;99.90;;;;;;5071997;28;20249;-50
2023/05/25 12:52:39;;;;;;;9.35;5.22;;;19.00;99.90;;;;;;5072106;28;20276;-49
2023/05/25 12:55:20;;;;;;;8.65;4.82;;;19.30;99.90;;;;;;5070645;28;20178;-49
2023/05/25 12:57:51;;;;;;;8.73;4.10;;;19.40;99.90;;;;;;5071831;28;20238;-50
2023/05/25 13:00:20;;;;;;;6.60;4.43;;;19.30;99.90;;;;;;5071975;28;20201;-49
2023/05/25 13:02:46;;;;;;;9.27;4.63;;;19.10;99.90;;;;;;5071845;28;20186;-49
2023/05/25 13:05:19;;;;;;;8.32;4.53;;;;;;;;;;5072318;28;20170;-50
2023/05/25 13:07:45;;;;;;;6.28;4.13;;;19.00;99.90;;;;;;5070645;28;20304;-50
2023/05/25 13:10:12;;;;;;;7.97;4.43;;;18.80;99.90;;;;;;5072342;28;20312;-50